YLL weather

Lloydminster Airport
Lloydminster, Alberta, Canada

Public forecast

Using degrees Celsius for public forecast. Weather courtesy of forecast.io.

Current aviation weather report (METAR) for Lloydminster Airport

Retrieved 2019/11/14 05:00 UTC (12 minutes ago):

CYLL 140500Z 26013KT 15SM FEW260 M01/M03 A2992 RMK CI1 LAST STFD OBS/NEXT 141400 UTC SLP169

Aviation forecast (TAF) for Lloydminster Airport

Retrieved 2019-11-14 00:39 UTC (5 hours ago):

TAF TAF CYLL 132338Z 1400/1412 22006KT P6SM FEW040 BECMG 1401/1403 27008KT FM140500 28008KT P6SM SCT015 TEMPO 1405/1408 4SM BR FEW005 BKN012 FM140800 30005KT 2SM BR OVC005 TEMPO 1408/1412 6SM BR OVC010 PROB30 1408/1412 1SM -FZDZ BR RMK NXT FCST BY 140600Z